Time;durP1;ratioP1;P1;durP2;ratioP2;P2;SDS_P1;SDS_P2;PMS_P1;PMS_P2;Temp;Humidity;BMP_temperature;BMP_pressure;BME280_temperature;BME280_humidity;BME280_pressure;Samples;Min_cycle;Max_cycle;Signal;HPM_P1;HPM_P2
2022/03/28 00:00:52;;;;;;;1999.90;999.90;;;;;;;5.68;46.42;102253.66;4923035;28;97228;-73
2022/03/28 00:03:19;;;;;;;1999.90;999.90;;;;;;;5.65;46.37;102242.88;4923332;28;97099;-74
2022/03/28 00:05:47;;;;;;;1999.90;999.90;;;;;;;5.63;46.39;102239.22;4917409;28;99428;-75
2022/03/28 00:08:16;;;;;;;1999.90;999.90;;;;;;;5.61;46.41;102235.56;4927586;28;98277;-75
2022/03/28 00:10:44;;;;;;;1999.90;999.90;;;;;;;5.58;46.59;102238.00;4908053;28;97882;-73
2022/03/28 00:13:11;;;;;;;1999.90;999.90;;;;;;;6.15;46.26;102230.22;4919817;28;97980;-73
2022/03/28 00:15:39;;;;;;;1999.90;999.90;;;;;;;5.77;46.93;102224.25;4918336;28;99098;-74
2022/03/28 00:18:09;;;;;;;1999.90;999.90;;;;;;;5.65;46.97;102227.03;4922589;28;98025;-72
2022/03/28 00:20:37;;;;;;;1999.90;999.90;;;;;;;5.58;47.03;102227.44;4923767;28;97107;-74
2022/03/28 00:23:05;;;;;;;1999.90;999.90;;;;;;;6.14;46.16;102215.19;4920802;28;97108;-75
2022/03/28 00:25:35;;;;;;;1999.90;999.90;;;;;;;6.32;46.37;102216.34;4919181;28;99082;-74
2022/03/28 00:28:03;;;;;;;1999.90;999.90;;;;;;;5.91;47.22;102216.38;4923011;28;99839;-74
2022/03/28 00:30:31;;;;;;;1999.90;999.90;;;;;;;6.32;46.84;102210.13;4920539;28;98236;-73
2022/03/28 00:33:00;;;;;;;1999.90;999.90;;;;;;;5.91;47.19;102216.38;4922664;28;97887;-75
2022/03/28 00:35:29;;;;;;;1999.90;999.90;;;;;;;5.77;47.39;102204.06;4922387;28;97832;-75
2022/03/28 00:37:57;;;;;;;1999.90;999.90;;;;;;;6.27;46.88;102198.38;4916699;28;99012;-73
2022/03/28 00:40:28;;;;;;;1999.90;999.90;;;;;;;6.41;46.80;102200.13;4920237;28;98360;-75
2022/03/28 00:42:57;;;;;;;1999.90;999.90;;;;;;;6.51;46.48;102192.81;4921083;28;96891;-73
2022/03/28 00:45:24;;;;;;;1999.90;999.90;;;;;;;6.56;46.35;102186.06;4920725;28;98780;-74
2022/03/28 00:47:53;;;;;;;1999.90;999.90;;;;;;;6.60;46.32;102195.09;4922633;28;99155;-74
2022/03/28 00:50:21;;;;;;;1999.90;999.90;;;;;;;6.08;47.03;102191.94;4923905;28;97926;-73
2022/03/28 00:52:49;;;;;;;1999.90;999.90;;;;;;;6.44;46.94;102181.78;4918686;28;97752;-73
2022/03/28 00:55:17;;;;;;;1999.90;999.90;;;;;;;6.53;46.50;102184.97;4914313;28;97596;-75
2022/03/28 00:57:45;;;;;;;1999.90;999.90;;;;;;;6.54;46.51;102176.25;4917264;28;99590;-73
2022/03/28 01:00:15;;;;;;;1999.90;999.90;;;;;;;6.56;46.65;102171.94;4919008;28;97679;-76
2022/03/28 01:02:43;;;;;;;1999.90;999.90;;;;;;;6.59;46.96;102174.75;4918170;28;97261;-74
2022/03/28 01:05:12;;;;;;;1999.90;999.90;;;;;;;6.04;47.79;102176.69;4918926;28;97234;-74
2022/03/28 01:07:40;;;;;;;1999.90;999.90;;;;;;;5.95;47.52;102183.13;4921624;28;98661;-74
2022/03/28 01:10:10;;;;;;;1999.90;999.90;;;;;;;6.37;46.85;102172.59;4923245;28;97969;-74
2022/03/28 01:12:42;;;;;;;1999.90;999.90;;;;;;;6.50;46.99;102174.22;4933951;28;98012;-74
2022/03/28 01:15:11;;;;;;;1999.90;999.90;;;;;;;5.99;47.61;102170.22;4922055;28;99294;-74
2022/03/28 01:20:29;;;;;;;1999.90;999.90;;;;;;;6.43;46.94;102157.09;4922809;28;97283;-75
2022/03/28 01:22:59;;;;;;;1999.90;999.90;;;;;;;6.50;46.72;102163.66;4922760;28;97217;-72
2022/03/28 01:25:29;;;;;;;1999.90;999.90;;;;;;;6.51;46.46;102153.16;4919483;28;98454;-73
2022/03/28 01:27:58;;;;;;;1999.90;999.90;;;;;;;5.99;47.45;102158.75;4919635;28;99471;-73
2022/03/28 01:30:28;;;;;;;1999.90;999.90;;;;;;;5.75;47.73;102155.50;4914985;28;96960;-75
2022/03/28 01:32:57;;;;;;;1999.90;999.90;;;;;;;5.60;48.17;102157.16;4920606;28;97137;-74
2022/03/28 01:35:29;;;;;;;1999.90;999.90;;;;;;;6.04;47.24;102150.28;4921694;28;98820;-74
2022/03/28 01:38:00;;;;;;;1999.90;999.90;;;;;;;5.60;47.68;102148.31;4922050;28;98195;-74
2022/03/28 01:40:29;;;;;;;1999.90;999.90;;;;;;;5.37;48.38;102154.81;4919503;28;97811;-74
2022/03/28 01:42:57;;;;;;;1999.90;999.90;;;;;;;5.81;47.70;102150.56;4916449;28;97128;-73
2022/03/28 01:45:25;;;;;;;1999.90;999.90;;;;;;;5.39;48.49;102158.47;4918567;28;97959;-73
2022/03/28 01:47:53;;;;;;;1999.90;999.90;;;;;;;5.78;47.78;102147.75;4919991;28;97937;-73
2022/03/28 01:50:21;;;;;;;1999.90;999.90;;;;;;;5.90;47.34;102152.91;4920159;28;97873;-72
2022/03/28 01:52:49;;;;;;;1999.90;999.90;;;;;;;5.42;48.59;102145.44;4920779;28;97306;-74
2022/03/28 01:55:19;;;;;;;1999.90;999.90;;;;;;;5.27;48.72;102146.19;4919633;28;98464;-73
2022/03/28 01:57:47;;;;;;;1999.90;999.90;;;;;;;5.10;48.85;102132.81;4905599;28;100396;-73
2022/03/28 02:00:16;;;;;;;1999.90;999.90;;;;;;;5.00;48.83;102140.00;4923357;28;96923;-72
2022/03/28 02:02:47;;;;;;;1999.90;999.90;;;;;;;4.93;49.04;102137.81;4923995;28;99174;-72
2022/03/28 02:05:15;;;;;;;1999.90;999.90;;;;;;;5.46;48.09;102136.00;4918352;28;97997;-72
2022/03/28 02:07:46;;;;;;;1999.90;999.90;;;;;;;5.58;47.78;102128.81;4924558;28;98423;-72
2022/03/28 02:10:16;;;;;;;1999.90;999.90;;;;;;;5.68;48.04;102133.88;4920383;28;97973;-73
2022/03/28 02:12:46;;;;;;;1999.90;999.90;;;;;;;5.71;48.16;102127.06;4920885;28;97609;-73
2022/03/28 02:15:16;;;;;;;1999.90;999.90;;;;;;;5.77;47.74;102119.53;4920593;28;98099;-72
2022/03/28 02:17:43;;;;;;;1999.90;999.90;;;;;;;5.80;47.75;102111.78;4923255;28;97846;-72
2022/03/28 02:20:13;;;;;;;1999.90;999.90;;;;;;;5.28;48.78;102117.28;4921585;28;97515;-72
2022/03/28 02:22:42;;;;;;;1999.90;999.90;;;;;;;5.08;48.84;102112.44;4922186;28;98452;-71
2022/03/28 02:25:11;;;;;;;1999.90;999.90;;;;;;;5.50;48.03;102108.97;4917754;28;99058;-75
2022/03/28 02:27:39;;;;;;;1999.90;999.90;;;;;;;5.05;48.87;102110.53;4917070;28;98814;-75
2022/03/28 02:30:10;;;;;;;1999.90;999.90;;;;;;;5.45;48.49;102106.03;4924709;28;97893;-72
2022/03/28 02:32:38;;;;;;;1999.90;999.90;;;;;;;5.55;48.35;102097.88;4920882;28;97864;-74
2022/03/28 02:35:09;;;;;;;1999.90;999.90;;;;;;;5.57;48.36;102096.25;4918118;28;97959;-72
2022/03/28 02:37:36;;;;;;;1999.90;999.90;;;;;;;5.59;48.30;102093.72;4919963;28;99048;-74
2022/03/28 02:40:07;;;;;;;1999.90;999.90;;;;;;;5.60;48.29;102087.59;4919833;28;97479;-73
2022/03/28 02:42:34;;;;;;;1999.90;999.90;;;;;;;5.61;48.14;102081.50;4917282;28;97408;-73
2022/03/28 02:45:02;;;;;;;1999.90;999.90;;;;;;;5.64;48.25;102084.34;4921830;28;98686;-73
2022/03/28 02:47:31;;;;;;;1999.90;999.90;;;;;;;5.11;49.26;102081.91;4924710;28;98057;-73
2022/03/28 02:49:59;;;;;;;1999.90;999.90;;;;;;;5.46;48.32;102080.56;4920189;28;97324;-73
2022/03/28 02:52:27;;;;;;;1999.90;999.90;;;;;;;4.99;49.36;102082.81;4924057;28;97372;-73
2022/03/28 02:54:55;;;;;;;1999.90;999.90;;;;;;;4.81;49.60;102079.00;4919835;28;98318;-72
2022/03/28 02:57:23;;;;;;;1999.90;999.90;;;;;;;5.27;48.70;102080.22;4916973;28;98051;-75
2022/03/28 02:59:50;;;;;;;1999.90;999.90;;;;;;;5.38;48.66;102071.22;4913867;28;98552;-72
2022/03/28 03:02:18;;;;;;;1999.90;999.90;;;;;;;5.41;48.63;102071.44;4916268;28;98831;-74
2022/03/28 03:04:47;;;;;;;1999.90;999.90;;;;;;;5.43;48.76;102069.81;4916263;28;98537;-73
2022/03/28 03:07:15;;;;;;;1999.90;999.90;;;;;;;5.42;48.70;102068.91;4919401;28;98104;-74
2022/03/28 03:09:43;;;;;;;1999.90;999.90;;;;;;;5.41;48.48;102067.06;4916932;28;97877;-75
2022/03/28 03:12:10;;;;;;;1999.90;999.90;;;;;;;5.39;48.42;102063.44;4918487;28;97334;-71
2022/03/28 03:14:38;;;;;;;1999.90;999.90;;;;;;;4.82;49.84;102059.69;4919608;28;99325;-73
2022/03/28 03:17:06;;;;;;;1999.90;999.90;;;;;;;4.56;49.88;102058.00;4920204;28;99168;-71
2022/03/28 03:19:34;;;;;;;1999.90;999.90;;;;;;;4.38;50.22;102055.88;4919739;28;97538;-72
2022/03/28 03:22:03;;;;;;;1999.90;999.90;;;;;;;4.21;50.42;102063.59;4920520;28;97664;-73
2022/03/28 03:24:31;;;;;;;1999.90;999.90;;;;;;;4.07;50.72;102059.13;4917401;28;98067;-72
2022/03/28 03:26:59;;;;;;;1999.90;999.90;;;;;;;3.99;50.56;102056.75;4919780;28;98167;-71
2022/03/28 03:29:27;;;;;;;1999.90;999.90;;;;;;;3.90;50.63;102061.41;4919082;28;97340;-74
2022/03/28 03:31:54;;;;;;;1999.90;999.90;;;;;;;3.82;50.77;102060.91;4919246;28;97362;-74
2022/03/28 03:34:22;;;;;;;1999.90;999.90;;;;;;;3.79;50.76;102055.41;4918385;28;99618;-72
2022/03/28 03:36:50;;;;;;;1999.90;999.90;;;;;;;3.76;50.86;102063.09;4930506;28;98073;-74
2022/03/28 03:39:21;;;;;;;1999.90;999.90;;;;;;;3.71;50.85;102055.69;4923169;28;97281;-74
2022/03/28 03:41:49;;;;;;;1999.90;999.90;;;;;;;3.66;51.11;102055.38;4920319;28;96810;-72
2022/03/28 03:44:16;;;;;;;1999.90;999.90;;;;;;;3.63;50.96;102055.13;4920450;28;98706;-74
2022/03/28 03:46:44;;;;;;;1999.90;999.90;;;;;;;3.61;50.66;102058.44;4923430;28;97943;-73
2022/03/28 03:49:12;;;;;;;1999.90;999.90;;;;;;;3.59;50.65;102060.06;4906097;28;96753;-74
2022/03/28 03:51:40;;;;;;;1999.90;999.90;;;;;;;3.57;50.91;102052.06;4940475;28;96871;-75
2022/03/28 03:54:08;;;;;;;1999.90;999.90;;;;;;;3.55;51.02;102061.56;4938346;28;97598;-74
2022/03/28 03:56:37;;;;;;;1999.90;999.90;;;;;;;3.54;50.34;102053.56;4941144;28;96484;-74
2022/03/28 03:59:05;;;;;;;1999.90;999.90;;;;;;;3.50;50.71;102049.81;4937361;28;96728;-75
2022/03/28 04:01:33;;;;;;;1999.90;999.90;;;;;;;3.48;50.43;102038.28;4928398;28;98466;-76
2022/03/28 04:04:01;;;;;;;1999.90;999.90;;;;;;;3.48;50.81;102037.38;4936628;28;99599;-74
2022/03/28 04:06:29;;;;;;;1999.90;999.90;;;;;;;3.46;50.89;102029.34;4922177;28;99236;-73
2022/03/28 04:08:56;;;;;;;1999.90;999.90;;;;;;;3.45;50.71;102027.53;4914251;28;97769;-73
2022/03/28 04:11:25;;;;;;;1999.90;999.90;;;;;;;3.46;50.76;102026.72;4916408;28;98046;-74
2022/03/28 04:13:54;;;;;;;1999.90;999.90;;;;;;;4.05;50.29;102026.50;4914899;28;99389;-73
2022/03/28 04:16:21;;;;;;;1999.90;999.90;;;;;;;4.26;50.37;102020.81;4917115;28;97509;-70
2022/03/28 04:18:49;;;;;;;1999.90;999.90;;;;;;;4.36;50.50;102018.91;4915941;28;97521;-75
2022/03/28 04:21:17;;;;;;;1999.90;999.90;;;;;;;4.46;50.26;102012.50;4916395;28;97698;-73
2022/03/28 04:23:44;;;;;;;1999.90;999.90;;;;;;;4.53;50.20;102006.81;4916648;28;98468;-71
2022/03/28 04:26:12;;;;;;;1999.90;999.90;;;;;;;4.57;50.14;102008.84;4918861;28;99718;-73
2022/03/28 04:28:40;;;;;;;1999.90;999.90;;;;;;;4.62;50.10;102002.13;4910342;28;97286;-75
2022/03/28 04:31:09;;;;;;;1999.90;999.90;;;;;;;4.65;49.97;101997.03;4914843;28;97112;-77
2022/03/28 04:33:37;;;;;;;1999.90;999.90;;;;;;;4.68;50.24;101999.91;4913084;28;98345;-73
2022/03/28 04:36:05;;;;;;;1999.90;999.90;;;;;;;4.69;50.14;102000.00;4918278;28;99320;-72
2022/03/28 04:38:34;;;;;;;1999.90;999.90;;;;;;;4.70;49.83;101991.25;4918443;28;97618;-73
2022/03/28 04:41:01;;;;;;;1999.90;999.90;;;;;;;4.72;49.72;101989.63;4917646;28;97576;-73
2022/03/28 04:43:29;;;;;;;1999.90;999.90;;;;;;;4.72;49.91;101988.72;4920392;28;98798;-73
2022/03/28 04:45:57;;;;;;;1999.90;999.90;;;;;;;4.71;49.97;101987.81;4918738;28;97572;-73
2022/03/28 04:48:26;;;;;;;1999.90;999.90;;;;;;;4.73;50.12;101988.84;4920689;28;97752;-74
2022/03/28 04:50:54;;;;;;;1999.90;999.90;;;;;;;4.73;50.17;101991.47;4918978;28;97845;-73
2022/03/28 04:53:21;;;;;;;1999.90;999.90;;;;;;;4.74;50.34;101988.00;4920586;28;99075;-73
2022/03/28 04:55:49;;;;;;;1999.90;999.90;;;;;;;4.78;50.21;101989.13;4920243;28;97890;-75
2022/03/28 04:58:18;;;;;;;1999.90;999.90;;;;;;;4.78;50.34;101990.03;4919258;28;97165;-74
2022/03/28 05:00:45;;;;;;;1999.90;999.90;;;;;;;4.80;50.31;101988.41;4920790;28;97076;-72
2022/03/28 05:03:14;;;;;;;1999.90;999.90;;;;;;;4.81;50.26;101994.59;4918409;28;98617;-72
2022/03/28 05:05:43;;;;;;;1999.90;999.90;;;;;;;4.80;50.19;101985.78;4916813;28;98546;-70
2022/03/28 05:08:11;;;;;;;1999.90;999.90;;;;;;;4.81;50.02;101990.22;4920222;28;97770;-75
2022/03/28 05:10:40;;;;;;;1999.90;999.90;;;;;;;4.82;50.00;101984.16;4920729;28;98191;-75
2022/03/28 05:13:08;;;;;;;1999.90;999.90;;;;;;;4.81;50.23;101986.69;4926013;28;98538;-76
2022/03/28 05:15:36;;;;;;;1999.90;999.90;;;;;;;4.79;50.21;101981.28;4916647;28;99944;-74
2022/03/28 05:18:04;;;;;;;1999.90;999.90;;;;;;;4.79;49.96;101986.56;4918431;28;98398;-75
2022/03/28 05:20:32;;;;;;;1999.90;999.90;;;;;;;4.77;50.05;101980.28;4920800;28;97632;-76
2022/03/28 05:23:01;;;;;;;1999.90;999.90;;;;;;;4.77;49.94;101982.03;4916327;28;100149;-74
2022/03/28 05:25:29;;;;;;;1999.90;999.90;;;;;;;4.75;49.55;101984.56;4917348;28;98782;-75
2022/03/28 05:27:56;;;;;;;1999.90;999.90;;;;;;;4.75;49.83;101983.66;4917584;28;97253;-75
2022/03/28 05:30:24;;;;;;;1999.90;999.90;;;;;;;4.73;50.25;101982.66;4917757;28;97166;-75
2022/03/28 05:32:52;;;;;;;1999.90;999.90;;;;;;;4.73;49.99;101980.94;4922461;28;97849;-75
2022/03/28 05:35:19;;;;;;;1999.90;999.90;;;;;;;4.73;49.89;101977.38;4921711;28;98967;-75
2022/03/28 05:37:47;;;;;;;1999.90;999.90;;;;;;;4.72;49.79;101978.16;4920893;28;97610;-75
2022/03/28 05:40:16;;;;;;;1999.90;999.90;;;;;;;4.74;49.77;101976.53;4918752;28;97646;-77
2022/03/28 05:42:44;;;;;;;1999.90;999.90;;;;;;;4.73;49.88;101972.09;4912646;28;98506;-76
2022/03/28 05:45:13;;;;;;;1999.90;999.90;;;;;;;4.72;50.01;101965.91;4918147;28;99355;-75
2022/03/28 05:47:41;;;;;;;1999.90;999.90;;;;;;;4.74;49.88;101973.91;4924602;28;97016;-76
2022/03/28 05:50:09;;;;;;;1999.90;999.90;;;;;;;4.75;50.03;101971.41;4931803;28;96872;-75
2022/03/28 05:52:37;;;;;;;1999.90;999.90;;;;;;;4.75;50.20;101970.47;4925023;28;99046;-74
2022/03/28 05:55:06;;;;;;;1999.90;999.90;;;;;;;4.76;50.23;101975.84;4926512;28;97626;-73
2022/03/28 05:57:36;;;;;;;1999.90;999.90;;;;;;;4.81;50.15;101968.22;4928807;28;97281;-75
2022/03/28 06:00:07;;;;;;;1999.90;999.90;;;;;;;4.82;50.32;101962.13;4929017;28;97106;-74
2022/03/28 06:02:39;;;;;;;1999.90;999.90;;;;;;;4.84;50.28;101971.06;4924219;28;98826;-75
2022/03/28 06:05:07;;;;;;;1999.90;999.90;;;;;;;4.86;50.35;101969.44;4924926;28;98034;-75
2022/03/28 06:07:35;;;;;;;1999.90;999.90;;;;;;;4.88;50.36;101967.81;4925796;28;98158;-74
2022/03/28 06:10:04;;;;;;;1999.90;999.90;;;;;;;4.92;50.32;101969.78;4922903;28;97490;-74
2022/03/28 06:12:32;;;;;;;1999.90;999.90;;;;;;;4.94;50.02;101965.53;4925846;28;98141;-74
2022/03/28 06:15:01;;;;;;;1999.90;999.90;;;;;;;4.97;50.16;101965.72;4927911;28;99922;-74
2022/03/28 06:17:29;;;;;;;1999.90;999.90;;;;;;;4.99;50.18;101961.47;4927583;28;97562;-73
2022/03/28 06:19:57;;;;;;;1999.90;999.90;;;;;;;5.02;50.14;101966.94;4929102;28;96903;-73
2022/03/28 06:22:24;;;;;;;1999.90;999.90;;;;;;;5.05;49.99;101959.22;4929709;28;100493;-75
2022/03/28 06:24:52;;;;;;;1999.90;999.90;;;;;;;5.10;49.81;101957.81;4927964;28;98105;-74
2022/03/28 06:27:23;;;;;;;1999.90;999.90;;;;;;;5.13;49.82;101950.06;4927118;28;96743;-75
2022/03/28 06:29:51;;;;;;;1999.90;999.90;;;;;;;5.18;50.04;101949.53;4929110;28;97129;-75
2022/03/28 06:32:20;;;;;;;1999.90;999.90;;;;;;;5.23;50.24;101945.44;4928084;28;97958;-75
2022/03/28 06:34:48;;;;;;;1999.90;999.90;;;;;;;5.29;50.14;101944.91;4930413;28;97826;-73
2022/03/28 06:37:16;;;;;;;1999.90;999.90;;;;;;;5.35;50.21;101949.66;4928243;28;97816;-76
2022/03/28 06:39:44;;;;;;;1999.90;999.90;;;;;;;5.39;50.35;101946.38;4927852;28;97147;-72
2022/03/28 06:42:11;;;;;;;1999.90;999.90;;;;;;;5.42;50.29;101936.91;4932865;28;101973;-73
2022/03/28 06:44:39;;;;;;;1999.90;999.90;;;;;;;5.49;50.40;101930.25;4926726;28;97628;-75
2022/03/28 06:47:07;;;;;;;1999.90;999.90;;;;;;;5.55;50.31;101934.19;4926250;28;97046;-73
2022/03/28 06:49:36;;;;;;;1999.90;999.90;;;;;;;5.60;50.17;101939.72;4926533;28;97602;-75
2022/03/28 06:52:05;;;;;;;1999.90;999.90;;;;;;;5.65;50.26;101939.19;4925828;28;98041;-74
2022/03/28 06:54:33;;;;;;;1999.90;999.90;;;;;;;5.69;49.94;101930.63;4928309;28;97721;-74
2022/03/28 06:57:01;;;;;;;1999.90;999.90;;;;;;;5.23;50.93;101933.09;4928640;28;97385;-75
2022/03/28 06:59:29;;;;;;;1999.90;999.90;;;;;;;5.04;51.29;101925.75;4928874;28;96882;-74
2022/03/28 07:01:57;;;;;;;1999.90;999.90;;;;;;;4.96;51.58;101922.63;4928269;28;98697;-74
2022/03/28 07:04:25;;;;;;;1999.90;999.90;;;;;;;4.90;51.41;101926.63;4923510;28;97913;-74
2022/03/28 07:06:55;;;;;;;1999.90;999.90;;;;;;;4.86;51.69;101929.88;4925705;28;96802;-74
2022/03/28 07:09:22;;;;;;;1999.90;999.90;;;;;;;4.80;51.81;101919.84;4928317;28;96847;-74
2022/03/28 07:11:50;;;;;;;1999.90;999.90;;;;;;;4.76;51.54;101917.81;4925506;28;98922;-74
2022/03/28 07:14:18;;;;;;;1999.90;999.90;;;;;;;4.75;51.80;101912.47;4923500;28;99497;-74
2022/03/28 07:16:45;;;;;;;1999.90;999.90;;;;;;;4.75;51.67;101915.09;4928161;28;97428;-74
2022/03/28 07:19:13;;;;;;;1999.90;999.90;;;;;;;4.75;51.86;101909.81;4928729;28;97512;-74
2022/03/28 07:21:41;;;;;;;1999.90;999.90;;;;;;;4.75;51.58;101905.47;4927209;28;97328;-73
2022/03/28 07:24:10;;;;;;;1999.90;999.90;;;;;;;4.76;51.59;101894.09;4926480;28;98723;-73
2022/03/28 07:26:38;;;;;;;1999.90;999.90;;;;;;;5.23;51.37;101891.75;4935095;28;97101;-74
2022/03/28 07:29:06;;;;;;;1999.90;999.90;;;;;;;5.51;51.40;101896.94;4927048;28;97605;-73
2022/03/28 07:31:36;;;;;;;1999.90;999.90;;;;;;;5.20;51.70;101894.22;4938143;28;98431;-75
2022/03/28 07:36:49;;;;;;;1999.90;999.90;;;;;;;5.09;51.81;101888.28;4932837;28;97306;-75
2022/03/28 07:39:19;;;;;;;1999.90;999.90;;;;;;;5.52;51.15;101875.91;4933562;28;97247;-74
2022/03/28 07:41:47;;;;;;;1999.90;999.90;;;;;;;5.31;51.58;101884.28;4928782;28;97865;-73
2022/03/28 07:44:16;;;;;;;1999.90;999.90;;;;;;;5.28;51.79;101882.41;4947826;28;99163;-74
2022/03/28 07:46:44;;;;;;;1999.90;999.90;;;;;;;5.72;51.08;101874.44;4933637;28;97323;-74
2022/03/28 07:49:13;;;;;;;1999.90;999.90;;;;;;;5.94;50.84;101857.25;4929809;28;96927;-73
2022/03/28 07:51:40;;;;;;;1999.90;999.90;;;;;;;6.10;50.58;101859.94;4927996;28;97677;-74
2022/03/28 07:54:09;;;;;;;1999.90;999.90;;;;;;;6.27;50.66;101863.56;4922779;28;99200;-78
2022/03/28 07:56:39;;;;;;;1999.90;999.90;;;;;;;5.87;51.33;101864.75;4925949;28;97543;-74
2022/03/28 07:59:08;;;;;;;1999.90;999.90;;;;;;;5.76;51.57;101855.28;4928694;28;96846;-73
2022/03/28 08:01:36;;;;;;;1999.90;999.90;;;;;;;5.72;51.37;101855.97;4933933;28;100877;-75
2022/03/28 08:04:05;;;;;;;1999.90;999.90;;;;;;;5.71;51.39;101851.50;4927680;28;97616;-75
2022/03/28 08:06:32;;;;;;;1999.90;999.90;;;;;;;5.70;51.51;101849.69;4921706;28;97561;-75
2022/03/28 08:09:00;;;;;;;1999.90;999.90;;;;;;;5.72;51.44;101848.94;4924586;28;98505;-74
2022/03/28 08:11:29;;;;;;;1999.90;999.90;;;;;;;5.76;51.05;101845.66;4925066;28;98851;-75
2022/03/28 08:14:00;;;;;;;1999.90;999.90;;;;;;;5.80;51.16;101842.38;4926237;28;98629;-74
2022/03/28 08:16:29;;;;;;;1999.90;999.90;;;;;;;5.82;50.96;101845.09;4926824;28;97219;-73
2022/03/28 08:18:57;;;;;;;1999.90;999.90;;;;;;;5.99;50.59;101837.31;4925845;28;97204;-73
2022/03/28 08:21:25;;;;;;;1999.90;999.90;;;;;;;6.03;50.25;101834.00;4925035;28;97521;-74
2022/03/28 08:23:52;;;;;;;1999.90;999.90;;;;;;;6.07;50.26;101838.63;4926765;28;99684;-75
2022/03/28 08:26:20;;;;;;;1999.90;999.90;;;;;;;5.92;50.77;101832.50;4925451;28;98435;-74
2022/03/28 08:28:48;;;;;;;1999.90;999.90;;;;;;;5.92;50.69;101843.06;4924685;28;97940;-74
2022/03/28 08:31:17;;;;;;;1999.90;999.90;;;;;;;5.96;50.83;101844.13;4925332;28;98502;-75
2022/03/28 08:33:45;;;;;;;1999.90;999.90;;;;;;;5.98;50.73;101835.47;4926339;28;97562;-75
2022/03/28 08:36:13;;;;;;;1999.90;999.90;;;;;;;6.03;50.78;101835.75;4925504;28;96993;-74
2022/03/28 08:38:40;;;;;;;1999.90;999.90;;;;;;;6.06;50.98;101839.47;4935194;28;97147;-74
2022/03/28 08:41:12;;;;;;;1999.90;999.90;;;;;;;6.03;50.85;101841.94;4927483;28;98996;-74
2022/03/28 08:43:41;;;;;;;1999.90;999.90;;;;;;;6.01;50.81;101827.72;4937165;28;99303;-76
2022/03/28 08:46:09;;;;;;;1999.90;999.90;;;;;;;6.03;50.50;101828.72;4929734;28;97908;-75
2022/03/28 08:48:40;;;;;;;1999.90;999.90;;;;;;;6.08;50.92;101840.47;4928701;28;96892;-74
2022/03/28 08:51:09;;;;;;;1999.90;999.90;;;;;;;6.10;50.89;101828.22;4927000;28;97700;-75
2022/03/28 08:53:37;;;;;;;1999.90;999.90;;;;;;;6.11;50.88;101818.56;4928987;28;97583;-75
2022/03/28 08:56:07;;;;;;;1999.90;999.90;;;;;;;6.15;50.91;101825.84;4928809;28;97329;-75
2022/03/28 08:58:55;;;;;;;1999.90;999.90;;;;;;;6.19;50.55;101822.56;4927367;28;97316;-74
2022/03/28 09:01:24;;;;;;;1999.90;999.90;;;;;;;6.25;50.43;101818.50;4928133;28;97018;-74
2022/03/28 09:03:53;;;;;;;1999.90;999.90;;;;;;;6.30;50.11;101821.47;4932603;28;98924;-75
2022/03/28 09:06:30;;;;;;;1999.90;999.90;;;;;;;6.35;50.62;101821.69;4920223;28;97828;-74
2022/03/28 09:09:10;;;;;;;1999.90;999.90;;;;;;;6.41;51.15;101819.41;4925373;28;97240;-73
2022/03/28 09:11:38;;;;;;;1999.90;999.90;;;;;;;6.45;50.59;101808.16;4923749;28;98024;-74
2022/03/28 09:14:06;;;;;;;1999.90;999.90;;;;;;;6.47;50.51;101809.16;4924637;28;98188;-73
2022/03/28 09:16:35;;;;;;;1999.90;999.90;;;;;;;6.50;50.24;101806.66;4925830;28;96758;-75
2022/03/28 09:19:10;;;;;;;1999.90;999.90;;;;;;;6.55;50.27;101799.88;4924240;28;97775;-73
2022/03/28 09:21:38;;;;;;;1999.90;999.90;;;;;;;6.62;50.13;101789.72;4925129;28;98748;-74
2022/03/28 09:24:10;;;;;;;1999.90;999.90;;;;;;;6.70;50.13;101792.78;4925038;28;98080;-74
2022/03/28 09:26:38;;;;;;;1999.90;999.90;;;;;;;6.78;50.17;101791.44;4925298;28;97818;-74
2022/03/28 09:29:06;;;;;;;1999.90;999.90;;;;;;;6.87;49.89;101794.56;4926325;28;97456;-75
2022/03/28 09:31:36;;;;;;;1999.90;999.90;;;;;;;6.92;49.44;101790.41;4904183;28;99274;-74
2022/03/28 09:34:10;;;;;;;1999.90;999.90;;;;;;;6.97;49.64;101794.19;4927385;28;98797;-74
2022/03/28 09:36:44;;;;;;;1999.90;999.90;;;;;;;6.99;49.62;101779.31;4928561;28;97780;-74
2022/03/28 09:39:17;;;;;;;1999.90;999.90;;;;;;;7.04;49.39;101775.16;4928361;28;97304;-74
2022/03/28 09:41:46;;;;;;;1999.90;999.90;;;;;;;7.08;49.14;101775.41;4929671;28;97660;-75
2022/03/28 09:44:14;;;;;;;1999.90;999.90;;;;;;;7.14;49.26;101770.41;4928935;28;99263;-74
2022/03/28 09:46:41;;;;;;;1999.90;999.90;;;;;;;7.20;49.43;101761.88;4927844;28;96949;-74
2022/03/28 09:49:24;;;;;;;1999.90;999.90;;;;;;;7.27;49.40;101757.81;4926998;28;96856;-72
2022/03/28 09:52:02;;;;;;;1999.90;999.90;;;;;;;7.34;49.40;101760.84;4926952;28;98893;-75
2022/03/28 09:54:43;;;;;;;1999.90;999.90;;;;;;;7.40;49.17;101757.59;4925507;28;101252;-75
2022/03/28 09:57:11;;;;;;;1999.90;999.90;;;;;;;7.47;49.14;101752.72;4928829;28;96857;-74
2022/03/28 09:59:40;;;;;;;1999.90;999.90;;;;;;;7.49;48.61;101752.78;4928882;28;97164;-75
2022/03/28 10:02:16;;;;;;;1999.90;999.90;;;;;;;7.54;48.73;101749.53;4928545;28;98797;-74
2022/03/28 10:04:49;;;;;;;1999.90;999.90;;;;;;;7.61;49.03;101741.03;4929519;28;99049;-74
2022/03/28 10:07:18;;;;;;;1999.90;999.90;;;;;;;7.67;48.87;101736.03;4944268;28;97726;-73
2022/03/28 10:09:47;;;;;;;1999.90;999.90;;;;;;;7.75;48.37;101724.03;4925678;28;96828;-75
2022/03/28 10:12:15;;;;;;;1999.90;999.90;;;;;;;7.83;48.17;101727.97;4926013;28;98110;-75
2022/03/28 10:14:44;;;;;;;1999.90;999.90;;;;;;;7.91;48.38;101725.69;4928656;28;97872;-75
2022/03/28 10:17:12;;;;;;;1999.90;999.90;;;;;;;7.98;48.27;101720.72;4930151;28;97838;-73
2022/03/28 10:19:40;;;;;;;1999.90;999.90;;;;;;;8.05;47.93;101714.88;4941471;28;96785;-75
2022/03/28 10:22:23;;;;;;;1999.90;999.90;;;;;;;8.12;48.05;101706.38;4928622;28;97748;-73
2022/03/28 10:24:52;;;;;;;1999.90;999.90;;;;;;;8.19;47.70;101710.19;4926388;28;99674;-73
2022/03/28 10:27:19;;;;;;;1999.90;999.90;;;;;;;8.23;47.77;101714.81;4927706;28;96696;-73
2022/03/28 10:29:47;;;;;;;1999.90;999.90;;;;;;;8.24;47.74;101706.91;4928570;28;97548;-74
2022/03/28 10:32:16;;;;;;;1999.90;999.90;;;;;;;8.29;47.86;101714.19;4918370;28;100641;-74
2022/03/28 10:34:52;;;;;;;1999.90;999.90;;;;;;;8.31;47.87;101707.22;4926884;28;100403;-75
2022/03/28 10:37:32;;;;;;;1999.90;999.90;;;;;;;8.34;47.77;101702.03;4923930;28;96834;-74
2022/03/28 10:40:21;;;;;;;1999.90;999.90;;;;;;;8.40;47.86;101697.91;4927717;28;96932;-74
2022/03/28 10:42:51;;;;;;;1999.90;999.90;;;;;;;8.48;47.27;101699.19;4925330;28;100218;-74
2022/03/28 10:45:20;;;;;;;1999.90;999.90;;;;;;;8.55;47.24;101690.66;4923758;28;99278;-75
2022/03/28 10:47:51;;;;;;;1999.90;999.90;;;;;;;8.59;47.38;101683.72;4926608;28;97308;-73
2022/03/28 10:50:21;;;;;;;1999.90;999.90;;;;;;;8.65;47.13;101676.97;4927133;28;97897;-74
2022/03/28 10:53:13;;;;;;;1999.90;999.90;;;;;;;8.73;47.25;101678.16;4929434;28;97718;-76
2022/03/28 10:55:46;;;;;;;1999.90;999.90;;;;;;;8.83;47.01;101679.47;4929495;28;100089;-75
2022/03/28 10:58:17;;;;;;;1999.90;999.90;;;;;;;8.92;46.83;101671.91;4929505;28;97439;-75
2022/03/28 11:01:31;;;;;;;1999.90;999.90;;;;;;;8.94;46.95;101665.81;4938677;28;97846;-75
2022/03/28 11:04:06;;;;;;;1999.90;999.90;;;;;;;9.02;46.53;101660.84;4913721;28;98791;-74
2022/03/28 11:06:59;;;;;;;1999.90;999.90;;;;;;;9.06;46.88;101657.47;4927256;28;100628;-75
2022/03/28 11:09:43;;;;;;;1999.90;999.90;;;;;;;9.13;46.54;101651.56;4924424;28;97373;-75